createdAt,value
2018-01-21T00:00:18.331Z,96.80
2018-01-21T00:02:46.083Z,82.22
2018-01-21T00:05:13.924Z,83.60
2018-01-21T00:07:41.793Z,99.75
2018-01-21T00:10:09.657Z,87.80
2018-01-21T00:12:37.484Z,83.45
2018-01-21T00:15:05.302Z,86.32
2018-01-21T00:17:33.111Z,78.95
2018-01-21T00:20:00.933Z,80.00
2018-01-21T00:22:34.934Z,86.55
2018-01-21T00:25:02.743Z,89.95
2018-01-21T00:27:30.555Z,81.03
2018-01-21T00:29:58.367Z,89.50
2018-01-21T00:32:26.176Z,76.95
2018-01-21T00:34:53.995Z,80.97
2018-01-21T00:37:21.831Z,66.75
2018-01-21T00:39:49.655Z,73.68
2018-01-21T00:42:17.623Z,80.82
2018-01-21T00:44:45.463Z,71.70
2018-01-21T00:47:13.333Z,75.60
2018-01-21T00:49:41.161Z,75.22
2018-01-21T00:52:09.000Z,72.47
2018-01-21T00:54:36.849Z,76.80
2018-01-21T00:57:04.691Z,88.10
2018-01-21T00:59:32.613Z,70.18
2018-01-21T01:02:00.459Z,74.28
2018-01-21T01:04:28.297Z,89.47
2018-01-21T01:06:56.119Z,75.32
2018-01-21T01:09:23.947Z,73.45
2018-01-21T01:11:51.767Z,95.00
2018-01-21T01:14:19.577Z,79.87
2018-01-21T01:16:47.406Z,74.45
2018-01-21T01:19:15.215Z,84.10
2018-01-21T01:21:43.054Z,91.53
2018-01-21T01:24:10.882Z,86.63
2018-01-21T01:26:38.702Z,85.10
2018-01-21T01:29:06.512Z,87.05
2018-01-21T01:31:34.322Z,84.32
2018-01-21T01:34:02.126Z,85.20
2018-01-21T01:36:29.962Z,101.20
2018-01-21T01:38:57.824Z,93.75
2018-01-21T01:41:25.643Z,79.82
2018-01-21T01:43:53.467Z,90.07
2018-01-21T01:46:21.275Z,80.20
2018-01-21T01:48:53.941Z,88.87
2018-01-21T01:51:21.743Z,88.93
2018-01-21T01:53:49.560Z,82.80
2018-01-21T01:56:17.370Z,93.50
2018-01-21T01:58:45.195Z,82.37
2018-01-21T02:01:13.012Z,86.57
2018-01-21T02:03:40.823Z,79.43
2018-01-21T02:06:08.623Z,76.45
2018-01-21T02:08:36.450Z,79.95
2018-01-21T02:11:04.260Z,83.30
2018-01-21T02:13:32.095Z,84.22
2018-01-21T02:15:59.931Z,63.15
2018-01-21T02:18:27.726Z,82.03
2018-01-21T02:20:55.570Z,87.82
2018-01-21T02:23:23.408Z,86.25
2018-01-21T02:25:51.202Z,88.62
2018-01-21T02:28:19.011Z,74.20
2018-01-21T02:30:46.835Z,71.15
2018-01-21T02:33:14.647Z,63.20
2018-01-21T02:35:42.459Z,70.90
2018-01-21T02:38:10.279Z,65.35
2018-01-21T02:40:38.188Z,68.57
2018-01-21T02:43:05.963Z,97.95
2018-01-21T02:45:33.791Z,75.20
2018-01-21T02:48:01.593Z,69.35
2018-01-21T02:50:29.443Z,72.22
2018-01-21T02:52:57.249Z,74.60
2018-01-21T02:55:25.080Z,67.10
2018-01-21T02:57:52.894Z,76.82
2018-01-21T03:00:20.711Z,66.97
2018-01-21T03:02:48.744Z,73.87
2018-01-21T03:05:16.585Z,69.45
2018-01-21T03:07:44.437Z,78.05
2018-01-21T03:10:12.279Z,65.12
2018-01-21T03:12:40.094Z,63.90
2018-01-21T03:15:07.952Z,64.25
2018-01-21T03:17:35.778Z,64.60
2018-01-21T03:20:03.603Z,64.30
2018-01-21T03:22:31.407Z,70.50
2018-01-21T03:24:59.276Z,62.72
2018-01-21T03:27:27.098Z,66.85
2018-01-21T03:29:54.912Z,70.82
2018-01-21T03:32:22.733Z,75.12
2018-01-21T03:34:50.555Z,70.22
2018-01-21T03:37:18.384Z,71.90
2018-01-21T03:39:46.178Z,73.90
2018-01-21T03:42:14.008Z,74.78
2018-01-21T03:44:41.820Z,66.72
2018-01-21T03:47:09.638Z,72.62
2018-01-21T03:49:37.471Z,76.90
2018-01-21T03:52:05.303Z,72.40
2018-01-21T03:54:33.168Z,73.50
2018-01-21T03:57:00.991Z,71.10
2018-01-21T03:59:28.803Z,73.25
2018-01-21T04:01:56.628Z,73.55
2018-01-21T04:04:24.439Z,70.85
2018-01-21T04:06:52.245Z,78.47
2018-01-21T04:09:20.055Z,80.68
2018-01-21T04:11:47.868Z,83.60
2018-01-21T04:14:15.695Z,75.43
2018-01-21T04:16:43.524Z,74.15
2018-01-21T04:19:11.341Z,83.28
2018-01-21T04:21:39.183Z,79.82
2018-01-21T04:24:07.001Z,78.62
2018-01-21T04:26:34.815Z,73.30
2018-01-21T04:29:02.669Z,75.70
2018-01-21T04:31:30.496Z,78.78
2018-01-21T04:33:58.310Z,73.87
2018-01-21T04:36:26.919Z,70.72
2018-01-21T04:38:54.747Z,67.72
2018-01-21T04:41:22.579Z,73.95
2018-01-21T04:43:50.400Z,72.28
2018-01-21T04:46:18.251Z,76.47
2018-01-21T04:48:46.100Z,71.30
2018-01-21T04:51:13.934Z,68.95
2018-01-21T04:53:41.755Z,82.57
2018-01-21T04:56:09.571Z,78.43
2018-01-21T04:58:37.406Z,76.07
2018-01-21T05:01:05.223Z,77.72
2018-01-21T05:03:33.084Z,83.82
2018-01-21T05:06:00.884Z,70.05
2018-01-21T05:08:28.719Z,75.68
2018-01-21T05:10:56.520Z,77.75
2018-01-21T05:13:24.324Z,65.87
2018-01-21T05:15:52.144Z,79.65
2018-01-21T05:18:19.972Z,74.45
2018-01-21T05:20:47.775Z,83.40
2018-01-21T05:23:15.600Z,81.45
2018-01-21T05:25:43.416Z,78.53
2018-01-21T05:28:11.243Z,72.57
2018-01-21T05:30:39.051Z,82.10
2018-01-21T05:33:06.870Z,91.37
2018-01-21T05:35:34.684Z,75.78
2018-01-21T05:38:02.495Z,80.00
2018-01-21T05:40:30.312Z,91.80
2018-01-21T05:42:58.149Z,87.22
2018-01-21T05:45:25.981Z,93.35
2018-01-21T05:47:53.779Z,82.47
2018-01-21T05:50:21.622Z,86.57
2018-01-21T05:52:49.438Z,93.78
2018-01-21T05:55:17.279Z,100.22
2018-01-21T05:57:45.107Z,89.07
2018-01-21T06:00:12.951Z,107.70
2018-01-21T06:02:40.755Z,85.32
2018-01-21T06:05:08.563Z,99.70
2018-01-21T06:07:36.375Z,93.53
2018-01-21T06:10:04.196Z,100.07
2018-01-21T06:12:32.015Z,98.20
2018-01-21T06:14:59.839Z,84.68
2018-01-21T06:17:27.668Z,92.07
2018-01-21T06:19:55.506Z,94.43
2018-01-21T06:22:23.319Z,84.43
2018-01-21T06:24:51.167Z,96.57
2018-01-21T06:27:18.996Z,99.82
2018-01-21T06:29:46.819Z,86.85
2018-01-21T06:32:14.629Z,99.82
2018-01-21T06:34:42.455Z,107.12
2018-01-21T06:37:10.272Z,93.45
2018-01-21T06:39:38.461Z,97.28
2018-01-21T06:42:06.261Z,101.18
2018-01-21T06:44:34.081Z,113.00
2018-01-21T06:47:01.922Z,106.37
2018-01-21T06:49:29.743Z,112.28
2018-01-21T06:51:57.567Z,130.00
2018-01-21T06:54:25.399Z,122.32
2018-01-21T06:56:53.223Z,125.53
2018-01-21T06:59:21.032Z,121.90
2018-01-21T07:01:48.844Z,128.30
2018-01-21T07:04:16.691Z,104.95
2018-01-21T07:06:44.512Z,129.07
2018-01-21T07:09:12.331Z,121.60
2018-01-21T07:11:40.143Z,179.98
2018-01-21T07:14:07.946Z,131.40
2018-01-21T07:16:35.757Z,125.62
2018-01-21T07:19:03.682Z,114.18
2018-01-21T07:21:31.545Z,129.90
2018-01-21T07:23:59.343Z,123.28
2018-01-21T07:26:27.159Z,118.10
2018-01-21T07:28:55.020Z,316.33
2018-01-21T07:31:22.933Z,377.62
2018-01-21T07:33:50.737Z,451.73
2018-01-21T07:36:18.557Z,210.65
2018-01-21T07:38:46.375Z,403.40
2018-01-21T07:41:14.189Z,289.42
2018-01-21T07:43:42.002Z,260.20
2018-01-21T07:46:09.812Z,355.98
2018-01-21T07:48:37.625Z,335.80
2018-01-21T07:51:05.502Z,392.37
2018-01-21T07:53:33.320Z,476.98
2018-01-21T07:56:01.123Z,245.02
2018-01-21T07:58:28.928Z,165.90
2018-01-21T08:00:56.744Z,363.80
2018-01-21T08:03:24.579Z,266.75
2018-01-21T08:05:52.402Z,153.15
2018-01-21T08:08:20.291Z,365.40
2018-01-21T08:10:48.118Z,277.95
2018-01-21T08:13:15.949Z,206.77
2018-01-21T08:15:43.795Z,212.63
2018-01-21T08:18:11.631Z,138.27
2018-01-21T08:20:39.458Z,272.17
2018-01-21T08:23:07.287Z,271.65
2018-01-21T08:25:35.340Z,143.05
2018-01-21T08:28:03.225Z,207.20
2018-01-21T08:30:31.108Z,156.15
2018-01-21T08:32:58.941Z,272.50
2018-01-21T08:35:32.848Z,106.25
2018-01-21T08:38:06.662Z,161.05
2018-01-21T08:40:40.505Z,287.38
2018-01-21T08:43:08.367Z,321.65
2018-01-21T08:45:36.208Z,354.42
2018-01-21T08:48:04.055Z,209.70
2018-01-21T08:50:31.863Z,173.45
2018-01-21T08:52:59.696Z,189.43
2018-01-21T08:55:27.519Z,140.32
2018-01-21T08:57:55.355Z,136.23
2018-01-21T09:00:26.853Z,165.73
2018-01-21T09:02:54.663Z,151.70
2018-01-21T09:05:22.486Z,224.80
2018-01-21T09:07:50.320Z,247.98
2018-01-21T09:10:18.155Z,160.77
2018-01-21T09:12:45.975Z,147.70
2018-01-21T09:15:13.811Z,127.03
2018-01-21T09:17:41.636Z,130.63
2018-01-21T09:20:09.623Z,187.55
2018-01-21T09:22:37.488Z,110.07
2018-01-21T09:25:05.313Z,115.62
2018-01-21T09:27:33.155Z,116.68
2018-01-21T09:30:00.985Z,200.10
2018-01-21T09:32:28.787Z,141.30
2018-01-21T09:34:56.608Z,121.40
2018-01-21T09:37:24.419Z,208.90
2018-01-21T09:39:52.246Z,161.95
2018-01-21T09:42:20.048Z,126.15
2018-01-21T09:44:47.884Z,112.10
2018-01-21T09:47:15.702Z,317.55
2018-01-21T09:49:43.509Z,111.93
2018-01-21T09:52:11.367Z,140.18
2018-01-21T09:54:39.175Z,134.20
2018-01-21T09:57:07.034Z,154.25
2018-01-21T09:59:34.827Z,114.40
2018-01-21T10:02:02.646Z,177.05
2018-01-21T10:04:30.438Z,165.60
2018-01-21T10:06:58.255Z,146.23
2018-01-21T10:09:26.065Z,148.77
2018-01-21T10:11:53.879Z,177.55
2018-01-21T10:14:21.752Z,128.87
2018-01-21T10:16:49.592Z,117.40
2018-01-21T10:19:17.415Z,120.78
2018-01-21T10:21:45.406Z,119.62
2018-01-21T10:24:13.507Z,120.43
2018-01-21T10:26:41.328Z,138.68
2018-01-21T10:29:09.139Z,118.57
2018-01-21T10:31:36.996Z,117.37
2018-01-21T10:34:04.779Z,133.87
2018-01-21T10:36:32.601Z,117.55
2018-01-21T10:39:00.399Z,173.93
2018-01-21T10:41:28.219Z,124.12
2018-01-21T10:43:56.028Z,117.03
2018-01-21T10:46:23.851Z,132.57
2018-01-21T10:48:51.708Z,267.70
2018-01-21T10:51:19.563Z,113.82
2018-01-21T10:53:47.387Z,107.32
2018-01-21T10:56:15.214Z,144.18
2018-01-21T10:58:43.082Z,139.88
2018-01-21T11:01:10.925Z,109.50
2018-01-21T11:03:38.792Z,119.55
2018-01-21T11:06:06.621Z,122.70
2018-01-21T11:08:34.484Z,102.93
2018-01-21T11:11:02.319Z,101.97
2018-01-21T11:13:30.173Z,108.53
2018-01-21T11:15:57.988Z,111.18
2018-01-21T11:18:25.804Z,104.72
2018-01-21T11:20:53.611Z,106.00
2018-01-21T11:23:21.431Z,108.97
2018-01-21T11:25:49.240Z,86.78
2018-01-21T11:28:17.051Z,98.72
2018-01-21T11:30:44.872Z,89.32
2018-01-21T11:33:12.686Z,90.15
2018-01-21T11:35:40.504Z,92.18
2018-01-21T11:38:08.327Z,91.55
2018-01-21T11:40:36.147Z,93.68
2018-01-21T11:43:04.033Z,78.65
2018-01-21T11:45:31.855Z,86.12
2018-01-21T11:47:59.678Z,91.10
2018-01-21T11:50:27.510Z,88.20
2018-01-21T11:52:55.332Z,96.03
2018-01-21T11:55:23.158Z,83.18
2018-01-21T11:57:51.035Z,92.57
2018-01-21T12:00:18.863Z,121.22
2018-01-21T12:02:46.671Z,89.22
2018-01-21T12:05:14.480Z,111.95
2018-01-21T12:07:42.291Z,112.95
2018-01-21T12:10:10.128Z,102.07
2018-01-21T12:12:38.545Z,98.12
2018-01-21T12:15:06.383Z,101.85
2018-01-21T12:17:34.199Z,99.70
2018-01-21T12:20:02.019Z,93.07
2018-01-21T12:22:29.823Z,93.85
2018-01-21T12:24:57.660Z,101.12
2018-01-21T12:27:25.471Z,95.68
2018-01-21T12:29:53.322Z,104.82
2018-01-21T12:32:21.151Z,86.10
2018-01-21T12:34:48.979Z,82.57
2018-01-21T12:37:16.781Z,76.47
2018-01-21T12:39:44.608Z,79.25
2018-01-21T12:42:12.468Z,88.45
2018-01-21T12:44:40.283Z,80.50
2018-01-21T12:47:08.091Z,79.85
2018-01-21T12:49:35.910Z,93.10
2018-01-21T12:52:03.723Z,96.55
2018-01-21T12:54:31.533Z,85.03
2018-01-21T12:56:59.354Z,86.57
2018-01-21T12:59:27.172Z,86.82
2018-01-21T13:01:54.971Z,83.50
2018-01-21T13:04:22.783Z,90.10
2018-01-21T13:06:50.591Z,88.15
2018-01-21T13:09:18.414Z,85.72
2018-01-21T13:11:46.228Z,86.32
2018-01-21T13:14:14.042Z,76.45
2018-01-21T13:16:41.860Z,97.05
2018-01-21T13:19:09.680Z,97.37
2018-01-21T13:21:37.503Z,85.15
2018-01-21T13:24:05.295Z,88.85
2018-01-21T13:26:33.097Z,98.47
2018-01-21T13:29:00.899Z,93.25
2018-01-21T13:31:28.712Z,88.05
2018-01-21T13:33:56.536Z,96.85
2018-01-21T13:36:24.412Z,92.05
2018-01-21T13:38:52.227Z,88.87
2018-01-21T13:41:20.064Z,93.70
2018-01-21T13:43:47.891Z,85.68
2018-01-21T13:46:15.736Z,81.60
2018-01-21T13:48:43.531Z,92.68
2018-01-21T13:51:11.325Z,88.12
2018-01-21T13:53:39.148Z,91.78
2018-01-21T13:56:06.964Z,90.35
2018-01-21T13:58:34.770Z,81.63
2018-01-21T14:01:02.591Z,84.47
2018-01-21T14:03:30.415Z,99.95
2018-01-21T14:05:58.245Z,84.20
2018-01-21T14:08:26.067Z,84.60
2018-01-21T14:10:53.871Z,78.57
2018-01-21T14:13:21.692Z,112.30
2018-01-21T14:15:49.522Z,104.45
2018-01-21T14:18:17.356Z,109.80
2018-01-21T14:20:45.165Z,107.12
2018-01-21T14:23:13.027Z,115.20
2018-01-21T14:25:40.844Z,85.10
2018-01-21T14:28:08.716Z,78.30
2018-01-21T14:30:36.500Z,111.18
2018-01-21T14:33:04.323Z,103.65
2018-01-21T14:35:32.132Z,106.28
2018-01-21T14:38:00.017Z,113.43
2018-01-21T14:40:27.872Z,108.95
2018-01-21T14:42:55.732Z,118.87
2018-01-21T14:45:23.551Z,98.35
2018-01-21T14:47:51.370Z,105.65
2018-01-21T14:50:19.185Z,116.12
2018-01-21T14:52:47.013Z,136.45
2018-01-21T14:55:14.843Z,140.45
2018-01-21T14:57:42.698Z,120.95
2018-01-21T15:00:10.536Z,138.23
2018-01-21T15:02:38.373Z,150.87
2018-01-21T15:05:06.192Z,110.80
2018-01-21T15:07:34.027Z,142.20
2018-01-21T15:10:02.130Z,148.32
2018-01-21T15:12:30.220Z,147.52
2018-01-21T15:14:58.209Z,144.70
2018-01-21T15:17:26.357Z,125.22
2018-01-21T15:19:54.303Z,157.52
2018-01-21T15:22:22.107Z,172.43
2018-01-21T15:24:50.764Z,143.27
2018-01-21T15:27:18.985Z,138.88
2018-01-21T15:29:46.807Z,158.02
2018-01-21T15:32:14.803Z,146.77
2018-01-21T15:34:42.612Z,151.68
2018-01-21T15:37:10.667Z,148.62
2018-01-21T15:39:38.887Z,158.23
2018-01-21T15:42:06.690Z,169.93
2018-01-21T15:44:34.524Z,153.32
2018-01-21T15:47:02.378Z,138.02
2018-01-21T15:49:30.204Z,146.55
2018-01-21T15:51:58.061Z,170.75
2018-01-21T15:54:25.888Z,176.77
2018-01-21T15:56:57.859Z,147.35
2018-01-21T15:59:32.220Z,156.93
2018-01-21T16:02:00.049Z,161.00
2018-01-21T16:04:27.852Z,141.43
2018-01-21T16:06:55.672Z,172.82
2018-01-21T16:09:23.487Z,176.90
2018-01-21T16:11:51.329Z,125.32
2018-01-21T16:14:19.115Z,128.10
2018-01-21T16:16:46.932Z,159.30
2018-01-21T16:19:14.747Z,135.48
2018-01-21T16:21:42.562Z,124.18
2018-01-21T16:24:10.390Z,112.15
2018-01-21T16:26:38.224Z,136.90
2018-01-21T16:29:14.822Z,119.80
2018-01-21T16:31:42.647Z,110.00
2018-01-21T16:34:10.455Z,108.28
2018-01-21T16:36:38.275Z,109.12
2018-01-21T16:39:12.680Z,122.78
2018-01-21T16:44:29.448Z,76.32
2018-01-21T16:46:57.292Z,100.32
2018-01-21T16:49:25.114Z,107.65
2018-01-21T16:51:53.036Z,120.37
2018-01-21T16:54:20.843Z,112.62
2018-01-21T16:56:48.653Z,135.73
2018-01-21T16:59:16.453Z,112.93
2018-01-21T17:01:44.337Z,117.07
2018-01-21T17:04:12.147Z,124.87
2018-01-21T17:06:39.949Z,126.97
2018-01-21T17:09:07.747Z,120.07
2018-01-21T17:11:35.572Z,140.60
2018-01-21T17:14:08.636Z,78.53
2018-01-21T17:16:36.430Z,123.30
2018-01-21T17:19:04.275Z,103.87
2018-01-21T17:21:32.186Z,110.80
2018-01-21T17:23:59.999Z,70.12
2018-01-21T17:26:27.815Z,108.60
2018-01-21T17:28:55.646Z,117.78
2018-01-21T17:31:23.480Z,105.30
2018-01-21T17:33:51.399Z,84.47
2018-01-21T17:36:19.349Z,83.03
2018-01-21T17:41:35.996Z,70.32
2018-01-21T17:44:03.904Z,65.80
2018-01-21T17:46:31.715Z,76.82
2018-01-21T17:48:59.581Z,67.70
2018-01-21T17:51:27.403Z,61.92
2018-01-21T17:53:55.267Z,66.20
2018-01-21T17:56:23.103Z,72.07
2018-01-21T17:58:52.704Z,68.57
2018-01-21T18:01:24.867Z,80.72
2018-01-21T18:03:52.696Z,79.72
2018-01-21T18:06:20.739Z,76.60
2018-01-21T18:11:28.610Z,87.57
2018-01-21T18:16:30.173Z,70.47
2018-01-21T18:18:58.159Z,73.57
2018-01-21T18:21:26.040Z,74.60
2018-01-21T18:23:53.869Z,88.12
2018-01-21T18:26:21.692Z,68.87
2018-01-21T18:28:51.547Z,77.40
2018-01-21T18:31:19.484Z,74.32
2018-01-21T18:33:47.544Z,71.43
2018-01-21T18:36:15.734Z,90.93
2018-01-21T18:38:50.552Z,81.63
2018-01-21T18:41:18.380Z,73.62
2018-01-21T18:43:46.197Z,72.05
2018-01-21T18:46:14.076Z,62.67
2018-01-21T18:48:41.938Z,65.50
2018-01-21T18:54:04.945Z,72.37
2018-01-21T18:56:39.764Z,69.72
2018-01-21T18:59:07.652Z,72.82
2018-01-21T19:01:36.892Z,69.72
2018-01-21T19:04:05.086Z,77.18
2018-01-21T19:06:32.950Z,76.57
2018-01-21T19:09:00.832Z,69.82
2018-01-21T19:11:28.700Z,68.75
2018-01-21T19:13:56.577Z,77.30
2018-01-21T19:16:24.460Z,67.35
2018-01-21T19:18:52.320Z,58.13
2018-01-21T19:21:20.211Z,74.03
2018-01-21T19:23:48.084Z,87.22
2018-01-21T19:26:15.930Z,74.37
2018-01-21T19:34:50.383Z,84.90
2018-01-21T20:38:47.394Z,82.85
2018-01-21T23:26:42.419Z,69.80
